Time;durP1;ratioP1;P1;durP2;ratioP2;P2;SDS_P1;SDS_P2;PMS_P1;PMS_P2;Temp;Humidity;BMP_temperature;BMP_pressure;BME280_temperature;BME280_humidity;BME280_pressure;Samples;Min_cycle;Max_cycle;Signal;HPM_P1;HPM_P2
2022/03/07 00:02:06;;;;;;;;;39.00;36.00;;;;;4.13;46.92;99298.81;5035025;28;45519;-75
2022/03/07 00:04:31;;;;;;;;;46.33;40.33;;;;;4.11;46.91;99293.63;5059065;28;45425;-74
2022/03/07 00:06:57;;;;;;;;;49.33;40.33;;;;;4.11;46.94;99296.22;5049887;28;45925;-74
2022/03/07 00:09:22;;;;;;;;;43.00;33.33;;;;;4.11;47.36;99303.19;5056077;28;45348;-75
2022/03/07 00:11:48;;;;;;;;;53.00;40.33;;;;;4.11;47.32;99300.59;5043488;28;45416;-74
2022/03/07 00:14:13;;;;;;;;;53.00;42.00;;;;;4.12;47.47;99302.31;5057348;28;45367;-74
2022/03/07 00:16:39;;;;;;;;;36.00;32.00;;;;;4.09;47.48;99300.59;5051080;28;46146;-74
2022/03/07 00:19:05;;;;;;;;;49.00;37.67;;;;;4.07;47.50;99304.97;5055848;28;45452;-74
2022/03/07 00:21:30;;;;;;;;;55.33;44.33;;;;;4.04;47.62;99304.13;5052405;28;45457;-74
2022/03/07 00:23:57;;;;;;;;;39.67;36.67;;;;;4.01;47.21;99306.78;5054149;28;45620;-74
2022/03/07 00:26:22;;;;;;;;;47.33;40.33;;;;;4.00;47.45;99300.72;5050584;28;46142;-74
2022/03/07 00:28:48;;;;;;;;;43.33;34.33;;;;;3.98;47.62;99302.47;5033534;28;45490;-74
2022/03/07 00:31:14;;;;;;;;;46.00;37.00;;;;;3.96;47.88;99304.22;5055201;28;45463;-74
2022/03/07 00:33:41;;;;;;;;;46.67;38.00;;;;;3.93;47.67;99309.47;5038350;28;45532;-74
2022/03/07 00:36:06;;;;;;;;;45.00;40.00;;;;;3.91;47.88;99307.75;5054640;28;45543;-74
2022/03/07 00:38:32;;;;;;;;;45.00;40.67;;;;;3.90;48.05;99308.63;5050424;28;45410;-74
2022/03/07 00:40:58;;;;;;;;;52.33;42.00;;;;;3.89;47.80;99307.78;5056152;28;45476;-74
2022/03/07 00:43:23;;;;;;;;;46.67;39.00;;;;;3.88;48.21;99308.66;5056543;28;45369;-74
2022/03/07 00:45:49;;;;;;;;;49.00;40.00;;;;;3.86;48.00;99313.00;5049278;28;46220;-74
2022/03/07 00:48:16;;;;;;;;;42.33;36.67;;;;;3.85;47.82;99316.53;5050154;28;45454;-74
2022/03/07 00:50:47;;;;;;;;;46.00;39.00;;;;;3.85;48.47;99313.91;5055029;28;45517;-74
2022/03/07 00:53:18;;;;;;;;;49.67;40.00;;;;;3.86;48.62;99320.84;5056030;28;45309;-74
2022/03/07 00:55:44;;;;;;;;;48.33;39.00;;;;;3.86;48.95;99315.63;5049511;28;45487;-74
2022/03/07 00:58:09;;;;;;;;;50.67;41.67;;;;;3.86;48.77;99318.22;5051562;28;45480;-74
2022/03/07 01:00:37;;;;;;;;;40.67;34.67;;;;;3.85;48.75;99317.34;5049915;28;45533;-74
2022/03/07 01:03:04;;;;;;;;;54.67;40.33;;;;;3.85;48.89;99321.75;5051923;28;45362;-74
2022/03/07 01:05:29;;;;;;;;;46.33;41.00;;;;;3.83;48.77;99321.75;5051833;28;45547;-74
2022/03/07 01:07:55;;;;;;;;;61.33;41.33;;;;;3.82;49.04;99326.97;5059151;28;45488;-74
2022/03/07 01:10:20;;;;;;;;;46.00;37.33;;;;;3.80;49.56;99320.91;5051835;28;45484;-74
2022/03/07 01:12:46;;;;;;;;;47.00;41.00;;;;;3.78;48.69;99313.09;5067034;28;45517;-74
2022/03/07 01:15:12;;;;;;;;;42.00;36.33;;;;;3.76;48.40;99308.78;5054558;28;46602;-74
2022/03/07 01:17:37;;;;;;;;;39.67;35.67;;;;;3.75;48.25;99307.03;5031372;28;45346;-74
2022/03/07 01:20:05;;;;;;;;;48.33;38.67;;;;;3.74;48.66;99310.53;5055503;28;45311;-74
2022/03/07 01:22:32;;;;;;;;;32.00;22.00;;;;;3.72;48.44;99312.28;5029278;28;45381;-74
2022/03/07 01:24:58;;;;;;;;;57.33;45.00;;;;;3.66;48.42;99309.75;5034748;28;45441;-74
2022/03/07 01:27:23;;;;;;;;;46.67;40.00;;;;;3.62;48.59;99311.53;5032333;28;45249;-74
2022/03/07 01:29:49;;;;;;;;;53.00;41.00;;;;;3.58;48.46;99306.34;5035093;28;45382;-74
2022/03/07 01:32:15;;;;;;;;;49.67;38.33;;;;;3.56;48.79;99306.34;5014946;28;46157;-74
2022/03/07 01:34:40;;;;;;;;;57.00;45.00;;;;;3.55;48.57;99309.84;5035654;28;45493;-74
2022/03/07 01:37:05;;;;;;;;;50.33;36.67;;;;;3.54;48.63;99308.09;5024049;28;45525;-74
2022/03/07 01:39:31;;;;;;;;;54.67;39.67;;;;;3.50;48.62;99306.44;5035513;28;45432;-74
2022/03/07 01:41:56;;;;;;;;;46.33;39.67;;;;;3.48;48.82;99308.19;5021410;28;45314;-74
2022/03/07 01:44:28;;;;;;;;;46.33;37.00;;;;;3.46;48.89;99305.59;5033448;28;47071;-74
2022/03/07 01:46:55;;;;;;;;;51.67;40.33;;;;;3.45;48.88;99303.84;5016655;28;45338;-74
2022/03/07 01:49:21;;;;;;;;;51.67;42.67;;;;;3.45;49.16;99303.00;5035190;28;45510;-74
2022/03/07 01:51:47;;;;;;;;;38.33;33.67;;;;;3.44;49.10;99302.13;5023770;28;45445;-74
2022/03/07 01:54:15;;;;;;;;;53.50;41.25;;;;;3.45;48.93;99300.38;5034679;28;45556;-74
2022/03/07 01:56:45;;;;;;;;;56.67;42.33;;;;;3.42;49.33;99301.28;5026871;28;45390;-74
2022/03/07 01:59:16;;;;;;;;;33.67;28.67;;;;;3.42;49.17;99301.28;5034784;28;45303;-74
2022/03/07 02:01:42;;;;;;;;;46.67;40.00;;;;;3.41;48.97;99293.47;5025614;28;45362;-74
2022/03/07 02:04:08;;;;;;;;;43.67;39.00;;;;;3.40;49.11;99290.00;5034676;28;46715;-74
2022/03/07 02:06:34;;;;;;;;;47.00;37.33;;;;;3.39;49.28;99290.00;5027174;28;45244;-74
2022/03/07 02:08:59;;;;;;;;;55.67;40.33;;;;;3.37;49.58;99296.97;5034885;28;45357;-74
2022/03/07 02:11:25;;;;;;;;;35.00;31.67;;;;;3.34;49.49;99287.47;5027440;28;45769;-74
2022/03/07 02:13:51;;;;;;;;;53.50;39.00;;;;;3.33;49.78;99292.69;5020208;28;47839;-74
2022/03/07 02:16:18;;;;;;;;;52.67;41.33;;;;;3.33;49.54;99287.47;5005595;28;45508;-74
2022/03/07 02:18:44;;;;;;;;;46.33;41.00;;;;;3.32;49.75;99297.03;5034650;28;45394;-74
2022/03/07 02:21:14;;;;;;;;;52.00;41.67;;;;;3.30;49.70;99288.34;5035194;28;45397;-74
2022/03/07 02:23:40;;;;;;;;;57.33;42.67;;;;;3.29;50.61;99293.56;5053961;28;45615;-74
2022/03/07 02:26:14;;;;;;;;;47.67;43.67;;;;;3.26;50.60;99293.59;5051565;28;45477;-74
2022/03/07 02:28:41;;;;;;;;;51.67;39.00;;;;;3.21;50.40;99284.94;5033910;28;45659;-75
2022/03/07 02:31:09;;;;;;;;;47.67;38.00;;;;;3.19;50.30;99290.16;5057917;28;45428;-74
2022/03/07 02:33:34;;;;;;;;;39.00;36.67;;;;;3.16;50.88;99290.22;5057866;28;45472;-74
2022/03/07 02:36:00;;;;;;;;;47.33;39.00;;;;;3.14;50.53;99290.22;5057821;28;45469;-74
2022/03/07 02:38:25;;;;;;;;;54.00;41.67;;;;;3.12;50.72;99286.75;5040208;28;45450;-74
2022/03/07 02:40:51;;;;;;;;;51.67;41.33;;;;;3.13;50.59;99287.63;5051329;28;45490;-74
2022/03/07 02:43:17;;;;;;;;;46.33;41.33;;;;;3.12;50.66;99284.16;5055595;28;46390;-74
2022/03/07 02:45:43;;;;;;;;;50.67;42.00;;;;;3.10;50.64;99282.44;5057478;28;45890;-74
2022/03/07 02:48:08;;;;;;;;;47.00;38.00;;;;;3.09;50.50;99286.78;5054686;28;45381;-74
2022/03/07 02:50:34;;;;;;;;;48.67;40.33;;;;;3.10;50.75;99285.03;5036240;28;45457;-74
2022/03/07 02:52:59;;;;;;;;;51.67;42.67;;;;;3.09;50.97;99280.69;5051113;28;46213;-74
2022/03/07 02:55:25;;;;;;;;;49.33;41.33;;;;;3.08;51.13;99277.22;5035793;28;45451;-75
2022/03/07 02:57:51;;;;;;;;;56.25;43.50;;;;;3.06;51.32;99281.59;5050674;28;45572;-74
2022/03/07 03:00:17;;;;;;;;;53.00;41.50;;;;;3.06;51.11;99280.72;5057702;28;45412;-74
2022/03/07 03:02:42;;;;;;;;;51.00;42.00;;;;;3.05;51.38;99281.59;5057726;28;45631;-74
2022/03/07 03:05:08;;;;;;;;;50.00;42.00;;;;;3.04;51.26;99282.47;5056212;28;45464;-74
2022/03/07 03:07:34;;;;;;;;;57.67;46.00;;;;;3.04;51.42;99282.47;5057977;28;45352;-74
2022/03/07 03:10:00;;;;;;;;;50.33;41.00;;;;;3.04;51.34;99282.47;5067087;28;45582;-74
2022/03/07 03:12:26;;;;;;;;;53.67;42.00;;;;;3.02;51.14;99279.88;5050686;28;45825;-74
2022/03/07 03:14:52;;;;;;;;;50.67;40.00;;;;;3.02;51.18;99272.06;5057462;28;45344;-74
2022/03/07 03:17:18;;;;;;;;;49.67;41.67;;;;;3.01;51.41;99272.97;5051109;28;45364;-74
2022/03/07 03:19:43;;;;;;;;;49.00;42.33;;;;;3.00;51.18;99270.38;5057593;28;45213;-74
2022/03/07 03:22:09;;;;;;;;;46.33;31.33;;;;;2.95;51.44;99267.78;5051955;28;45604;-74
2022/03/07 03:24:34;;;;;;;;;55.25;43.25;;;;;2.93;51.85;99268.66;5056000;28;45545;-74
2022/03/07 03:27:00;;;;;;;;;47.33;39.33;;;;;2.92;51.86;99267.81;5056684;28;45622;-74
2022/03/07 03:29:25;;;;;;;;;54.00;38.67;;;;;2.93;51.79;99273.88;5055827;28;45501;-74
2022/03/07 03:31:51;;;;;;;;;53.00;41.75;;;;;2.91;52.07;99278.22;5052920;28;46990;-74
2022/03/07 03:34:16;;;;;;;;;53.00;41.33;;;;;2.88;52.04;99279.09;5057099;28;45464;-74
2022/03/07 03:36:42;;;;;;;;;48.33;40.67;;;;;2.85;52.38;99276.50;5044885;28;45554;-74
2022/03/07 03:39:08;;;;;;;;;56.67;43.67;;;;;2.87;52.44;99273.91;5056437;28;45462;-74
2022/03/07 03:41:33;;;;;;;;;46.00;41.00;;;;;2.85;52.24;99278.28;5043446;28;45642;-74
2022/03/07 03:43:58;;;;;;;;;59.75;47.50;;;;;2.83;52.49;99274.81;5056546;28;45460;-74
2022/03/07 03:46:24;;;;;;;;;50.00;40.25;;;;;2.83;52.43;99280.03;5050553;28;45332;-74
2022/03/07 03:48:49;;;;;;;;;48.50;40.00;;;;;2.82;52.55;99273.97;5056302;28;45440;-74
2022/03/07 03:51:15;;;;;;;;;53.75;42.00;;;;;2.83;52.54;99282.63;5047015;28;46038;-74
2022/03/07 03:53:40;;;;;;;;;52.67;42.67;;;;;2.83;52.14;99280.91;5056287;28;45382;-74
2022/03/07 03:56:06;;;;;;;;;47.00;40.50;;;;;2.82;52.60;99279.16;5055624;28;45380;-74
2022/03/07 03:58:31;;;;;;;;;50.75;43.00;;;;;2.82;52.40;99278.31;5056788;28;45234;-74
2022/03/07 04:00:56;;;;;;;;;52.00;42.00;;;;;2.82;52.46;99276.56;5031379;28;46875;-74
2022/03/07 04:03:22;;;;;;;;;57.50;41.25;;;;;2.82;52.32;99279.16;5044159;28;45362;-74
2022/03/07 04:05:47;;;;;;;;;51.33;40.67;;;;;2.82;52.94;99280.91;5056831;28;45632;-74
2022/03/07 04:08:13;;;;;;;;;52.00;41.25;;;;;2.80;52.52;99283.50;5056788;28;45499;-74
2022/03/07 04:10:38;;;;;;;;;59.00;45.00;;;;;2.78;52.93;99283.53;5053496;28;45465;-74
2022/03/07 04:13:03;;;;;;;;;59.00;43.67;;;;;2.79;52.97;99287.00;5056063;28;45697;-74
2022/03/07 04:15:29;;;;;;;;;44.67;36.67;;;;;2.77;52.81;99294.81;5062493;28;45327;-74
2022/03/07 04:17:54;;;;;;;;;53.67;45.67;;;;;2.76;53.20;99293.06;5054877;28;45426;-75
2022/03/07 04:20:20;;;;;;;;;51.33;40.67;;;;;2.73;52.93;99287.88;5054411;28;45383;-74
2022/03/07 04:22:45;;;;;;;;;52.00;42.33;;;;;2.72;53.20;99293.09;5054564;28;45322;-74
2022/03/07 04:25:12;;;;;;;;;47.67;39.00;;;;;2.70;53.16;99290.50;5048675;28;45563;-74
2022/03/07 04:27:37;;;;;;;;;46.67;37.33;;;;;2.67;52.94;99290.53;5054885;28;45449;-74
2022/03/07 04:30:05;;;;;;;;;51.67;43.00;;;;;2.67;53.16;99292.28;5056317;28;46123;-74
2022/03/07 04:32:33;;;;;;;;;53.00;43.33;;;;;2.63;53.28;99294.03;5055844;28;45450;-74
2022/03/07 04:34:59;;;;;;;;;57.00;43.00;;;;;2.63;53.39;99296.63;5056142;28;45398;-74
2022/03/07 04:37:25;;;;;;;;;48.00;42.33;;;;;2.62;53.22;99291.44;5043428;28;45403;-74
2022/03/07 04:39:50;;;;;;;;;46.25;42.00;;;;;2.61;53.21;99294.91;5055558;28;46404;-74
2022/03/07 04:42:16;;;;;;;;;47.00;38.67;;;;;2.57;53.23;99290.59;5042205;28;45540;-74
2022/03/07 04:44:41;;;;;;;;;43.33;40.33;;;;;2.56;53.23;99291.44;5056187;28;45435;-74
2022/03/07 04:47:06;;;;;;;;;55.33;42.00;;;;;2.55;53.36;99297.53;5043237;28;45500;-74
2022/03/07 04:49:32;;;;;;;;;43.67;39.33;;;;;2.53;52.92;99286.25;5055706;28;45467;-74
2022/03/07 04:51:57;;;;;;;;;42.33;39.33;;;;;2.50;53.90;99284.56;5044208;28;45530;-74
2022/03/07 04:54:23;;;;;;;;;51.00;41.33;;;;;2.47;53.43;99292.38;5055700;28;45595;-74
2022/03/07 04:56:50;;;;;;;;;52.33;40.00;;;;;2.47;53.56;99294.97;5050808;28;45576;-74
2022/03/07 04:59:17;;;;;;;;;55.00;41.67;;;;;2.47;53.68;99299.31;5055568;28;46229;-74
2022/03/07 05:01:43;;;;;;;;;58.25;47.25;;;;;2.45;54.00;99296.72;5044280;28;45503;-74
2022/03/07 05:04:09;;;;;;;;;51.00;41.50;;;;;2.45;53.77;99301.94;5055206;28;45303;-74
2022/03/07 05:06:35;;;;;;;;;51.67;41.67;;;;;2.42;54.16;99301.94;5053210;28;45191;-74
2022/03/07 05:09:01;;;;;;;;;55.50;44.00;;;;;2.42;54.29;99302.81;5055783;28;46023;-74
2022/03/07 05:11:26;;;;;;;;;60.50;48.00;;;;;2.40;54.39;99303.69;5048676;28;45513;-74
2022/03/07 05:13:51;;;;;;;;;55.25;40.00;;;;;2.38;54.37;99305.41;5055756;28;45339;-74
2022/03/07 05:16:17;;;;;;;;;50.67;40.67;;;;;2.35;54.52;99302.81;5053580;28;45475;-74
2022/03/07 05:18:42;;;;;;;;;47.25;39.75;;;;;2.32;54.61;99300.25;5055428;28;45994;-74
2022/03/07 05:21:08;;;;;;;;;57.50;44.25;;;;;2.28;54.70;99295.94;5051853;28;45572;-74
2022/03/07 05:23:33;;;;;;;;;59.25;46.75;;;;;2.23;54.84;99298.53;5050062;28;45377;-74
2022/03/07 05:25:58;;;;;;;;;55.25;40.50;;;;;2.22;54.71;99302.00;5052671;28;45463;-74
2022/03/07 05:28:24;;;;;;;;;58.25;45.00;;;;;2.20;55.10;99297.69;5054351;28;46239;-74
2022/03/07 05:30:49;;;;;;;;;59.25;48.50;;;;;2.19;55.16;99301.16;5054748;28;45485;-74
2022/03/07 05:33:15;;;;;;;;;60.25;45.00;;;;;2.19;55.82;99301.16;5048822;28;45228;-74
2022/03/07 05:35:40;;;;;;;;;61.25;47.00;;;;;2.19;55.47;99303.75;5053616;28;45436;-74
2022/03/07 05:38:08;;;;;;;;;57.50;46.75;;;;;2.19;55.28;99298.56;5054380;28;45741;-74
2022/03/07 05:40:33;;;;;;;;;55.00;44.75;;;;;2.20;55.28;99308.09;5054061;28;45280;-74
2022/03/07 05:42:59;;;;;;;;;57.75;44.00;;;;;2.19;55.05;99296.81;5048089;28;45496;-74
2022/03/07 05:45:24;;;;;;;;;61.00;46.25;;;;;2.19;55.45;99312.41;5038217;28;45295;-75
2022/03/07 05:47:50;;;;;;;;;53.75;45.00;;;;;2.19;55.28;99309.81;5036323;28;46669;-74
2022/03/07 05:50:15;;;;;;;;;57.50;45.25;;;;;2.20;55.29;99306.34;5053293;28;45366;-74
2022/03/07 05:52:41;;;;;;;;;61.00;47.00;;;;;2.20;54.89;99313.28;5051711;28;45487;-74
2022/03/07 05:55:07;;;;;;;;;64.00;51.00;;;;;2.17;55.36;99309.00;5054031;28;45587;-75
2022/03/07 05:57:33;;;;;;;;;59.25;47.00;;;;;2.17;55.43;99314.19;5039701;28;45539;-74
2022/03/07 05:59:59;;;;;;;;;62.50;48.25;;;;;2.15;55.59;99315.94;5034233;28;45626;-74
2022/03/07 06:02:24;;;;;;;;;60.00;47.50;;;;;2.14;55.27;99313.31;5045422;28;45491;-77
2022/03/07 06:04:50;;;;;;;;;67.75;52.75;;;;;2.21;55.73;99315.03;5052371;28;45528;-68
2022/03/07 06:07:15;;;;;;;;;70.50;55.00;;;;;2.29;55.80;99321.94;5036483;28;45590;-68
2022/03/07 06:09:40;;;;;;;;;68.25;55.75;;;;;2.35;55.76;99323.63;5060569;28;45431;-68
2022/03/07 06:12:07;;;;;;;;;62.00;44.75;;;;;2.39;55.54;99322.75;5053152;28;45420;-67
2022/03/07 06:14:32;;;;;;;;;66.50;50.25;;;;;2.41;55.47;99326.22;5061407;28;45594;-67
2022/03/07 06:16:57;;;;;;;;;60.00;45.00;;;;;2.44;55.27;99334.00;5056609;28;45229;-67
2022/03/07 06:19:23;;;;;;;;;55.75;43.75;;;;;2.45;55.37;99327.94;5063714;28;45461;-67
2022/03/07 06:21:48;;;;;;;;;63.50;48.25;;;;;2.45;55.66;99330.53;5056626;28;45422;-67
2022/03/07 06:24:16;;;;;;;;;58.50;46.50;;;;;2.45;55.76;99334.00;5063362;28;45309;-67
2022/03/07 06:26:42;;;;;;;;;58.25;45.75;;;;;2.48;55.74;99340.94;5031928;28;45465;-67
2022/03/07 06:29:07;;;;;;;;;57.75;46.00;;;;;2.48;55.91;99343.53;5066309;28;45394;-67
2022/03/07 06:31:33;;;;;;;;;55.00;47.00;;;;;2.47;55.82;99338.34;5060001;28;45440;-67
2022/03/07 06:33:58;;;;;;;;;59.75;45.25;;;;;2.44;55.72;99347.88;5051304;28;45528;-68
2022/03/07 06:36:24;;;;;;;;;62.00;48.00;;;;;2.47;55.54;99351.34;5051378;28;46178;-69
2022/03/07 06:38:49;;;;;;;;;58.25;46.50;;;;;2.46;55.79;99353.09;5046202;28;45469;-67
2022/03/07 06:41:14;;;;;;;;;59.50;46.00;;;;;2.47;55.74;99356.56;5041437;28;45903;-67
2022/03/07 06:43:40;;;;;;;;;65.25;50.50;;;;;2.49;56.05;99358.28;5050682;28;45575;-67
2022/03/07 06:46:05;;;;;;;;;63.00;47.75;;;;;2.51;55.64;99358.28;5053158;28;45482;-68
2022/03/07 06:48:31;;;;;;;;;65.75;50.75;;;;;2.52;55.78;99358.25;5053806;28;45334;-73
2022/03/07 06:50:57;;;;;;;;;63.50;48.00;;;;;2.50;55.80;99365.22;5049583;28;45250;-73
2022/03/07 06:53:22;;;;;;;;;60.25;51.00;;;;;2.52;55.49;99363.47;5053944;28;45187;-72
2022/03/07 06:55:48;;;;;;;;;63.25;51.25;;;;;2.53;55.66;99362.59;5047453;28;46118;-73
2022/03/07 06:58:13;;;;;;;;;68.00;50.25;;;;;2.55;55.48;99368.66;5048744;28;45493;-71
2022/03/07 07:00:38;;;;;;;;;51.75;45.00;;;;;2.58;55.52;99373.84;5051287;28;45949;-71
2022/03/07 07:03:05;;;;;;;;;68.50;53.75;;;;;2.61;55.31;99371.25;5034392;28;45217;-71
2022/03/07 07:05:32;;;;;;;;;59.75;47.00;;;;;2.64;55.45;99376.44;5051068;28;45652;-71
2022/03/07 07:07:58;;;;;;;;;62.75;48.25;;;;;2.70;55.57;99388.53;5049484;28;45276;-72
2022/03/07 07:10:24;;;;;;;;;64.25;48.75;;;;;2.71;54.92;99382.47;5047861;28;45430;-72
2022/03/07 07:12:50;;;;;;;;;64.00;46.25;;;;;2.71;55.17;99385.06;5048914;28;45350;-73
2022/03/07 07:15:16;;;;;;;;;62.00;49.50;;;;;2.75;55.62;99390.25;5052375;28;46370;-72
2022/03/07 07:17:43;;;;;;;;;64.00;50.75;;;;;2.80;55.53;99391.13;5043976;28;45619;-72
2022/03/07 07:20:10;;;;;;;;;58.75;45.50;;;;;2.84;55.31;99396.31;5059198;28;45344;-72
2022/03/07 07:22:37;;;;;;;;;58.50;48.00;;;;;2.85;55.13;99392.84;5055155;28;45582;-72
2022/03/07 07:25:04;;;;;;;;;61.00;49.50;;;;;2.87;55.29;99401.47;5066325;28;46393;-72
2022/03/07 07:27:29;;;;;;;;;60.50;46.75;;;;;2.92;55.37;99394.53;5060317;28;45465;-72
2022/03/07 07:29:55;;;;;;;;;65.75;50.00;;;;;2.95;55.21;99403.19;5060797;28;45453;-71
2022/03/07 07:32:21;;;;;;;;;65.00;52.25;;;;;2.99;55.25;99404.03;5036631;28;45622;-72
2022/03/07 07:34:46;;;;;;;;;54.75;39.75;;;;;3.02;55.07;99398.78;5054349;28;47251;-73
2022/03/07 07:37:12;;;;;;;;;67.25;50.00;;;;;3.04;54.94;99397.91;5038864;28;46011;-73
2022/03/07 07:39:37;;;;;;;;;61.50;49.25;;;;;3.08;55.21;99401.38;5055587;28;45354;-72
2022/03/07 07:42:04;;;;;;;;;65.25;52.00;;;;;3.12;55.11;99396.16;5059611;28;45435;-72
2022/03/07 07:44:29;;;;;;;;;57.75;49.25;;;;;3.20;54.59;99401.28;5055783;28;45351;-72
2022/03/07 07:46:55;;;;;;;;;60.00;48.50;;;;;3.24;54.82;99400.41;5051762;28;45562;-72
2022/03/07 07:49:23;;;;;;;;;57.75;46.00;;;;;3.31;54.84;99407.31;5058425;28;45371;-72
2022/03/07 07:51:49;;;;;;;;;64.50;46.00;;;;;3.34;54.69;99404.72;5048868;28;45475;-72
2022/03/07 07:54:15;;;;;;;;;65.50;51.25;;;;;3.37;54.28;99401.19;5059044;28;45506;-72
2022/03/07 07:56:40;;;;;;;;;67.50;52.00;;;;;3.41;54.70;99401.16;5039906;28;45430;-72
2022/03/07 07:59:06;;;;;;;;;67.75;52.50;;;;;3.45;54.32;99402.03;5039515;28;45485;-72
2022/03/07 08:01:31;;;;;;;;;70.00;54.50;;;;;3.50;54.24;99400.25;5050986;28;45403;-66
2022/03/07 08:03:57;;;;;;;;;57.50;49.25;;;;;3.56;54.19;99404.53;5055513;28;46259;-66
2022/03/07 08:06:23;;;;;;;;;61.25;49.75;;;;;3.60;53.55;99404.50;5055897;28;45357;-66
2022/03/07 08:08:48;;;;;;;;;64.25;49.25;;;;;3.64;53.35;99413.19;5056445;28;45426;-66
2022/03/07 08:11:13;;;;;;;;;63.00;49.50;;;;;3.69;53.31;99414.84;5048901;28;45504;-67
2022/03/07 08:13:39;;;;;;;;;59.25;46.75;;;;;3.78;53.13;99417.41;5055630;28;45613;-67
2022/03/07 08:16:04;;;;;;;;;61.75;49.25;;;;;3.84;52.77;99411.28;5053532;28;45378;-67
2022/03/07 08:18:30;;;;;;;;;66.00;52.00;;;;;3.91;53.11;99410.34;5056087;28;45311;-67
2022/03/07 08:20:59;;;;;;;;;67.75;51.00;;;;;3.99;52.72;99408.53;5022667;28;45456;-67
2022/03/07 08:23:25;;;;;;;;;69.25;49.00;;;;;4.06;52.76;99414.53;5052156;28;45835;-66
2022/03/07 08:25:50;;;;;;;;;62.00;48.25;;;;;4.10;52.52;99414.50;5053589;28;45447;-66
2022/03/07 08:28:16;;;;;;;;;52.50;46.00;;;;;4.14;52.38;99407.53;5053676;28;45653;-67
2022/03/07 08:30:41;;;;;;;;;59.25;47.50;;;;;4.20;52.06;99415.28;5053693;28;45445;-67
2022/03/07 08:33:07;;;;;;;;;57.25;44.25;;;;;4.24;51.95;99409.16;5044679;28;45624;-67
2022/03/07 08:35:32;;;;;;;;;57.75;45.25;;;;;4.28;52.03;99403.03;5033873;28;45859;-67
2022/03/07 08:37:58;;;;;;;;;55.75;45.00;;;;;4.33;51.62;99409.06;5042769;28;45499;-67
2022/03/07 08:40:25;;;;;;;;;61.25;44.00;;;;;4.41;51.66;99416.81;5036199;28;45579;-67
2022/03/07 08:42:51;;;;;;;;;61.00;46.33;;;;;4.49;51.49;99407.16;5054770;28;46393;-67
2022/03/07 08:45:17;;;;;;;;;57.50;44.75;;;;;4.57;51.09;99400.94;5034619;28;45588;-66
2022/03/07 08:47:42;;;;;;;;;49.00;40.67;;;;;4.66;51.10;99405.22;5050302;28;45451;-69
2022/03/07 08:50:11;;;;;;;;;55.33;45.00;;;;;4.75;50.94;99404.22;5036034;28;45391;-67
2022/03/07 08:52:38;;;;;;;;;57.67;46.67;;;;;4.81;50.66;99399.81;5043383;28;45408;-66
2022/03/07 08:55:05;;;;;;;;;60.25;47.25;;;;;4.86;50.47;99400.59;5053227;28;45346;-66
2022/03/07 08:57:31;;;;;;;;;67.00;48.00;;;;;4.91;50.29;99401.41;5050187;28;45468;-66
2022/03/07 08:59:56;;;;;;;;;63.00;46.67;;;;;4.96;50.50;99403.97;5038638;28;45560;-67
2022/03/07 09:02:22;;;;;;;;;59.50;48.00;;;;;5.02;50.09;99403.03;5062539;28;46587;-67
2022/03/07 09:04:47;;;;;;;;;59.00;47.50;;;;;5.08;50.44;99408.16;5054126;28;45441;-67
2022/03/07 09:07:13;;;;;;;;;60.75;46.00;;;;;5.14;50.44;99406.34;5029929;28;45584;-68
2022/03/07 09:09:38;;;;;;;;;62.00;48.75;;;;;5.20;50.18;99403.63;5049754;28;45515;-68
2022/03/07 09:12:05;;;;;;;;;64.75;49.75;;;;;5.30;50.33;99406.13;5051039;28;46246;-65
2022/03/07 09:14:31;;;;;;;;;61.50;44.25;;;;;5.36;50.26;99403.44;5052887;28;45488;-66
2022/03/07 09:16:56;;;;;;;;;60.75;48.75;;;;;5.41;50.15;99410.28;5053944;28;45496;-66
2022/03/07 09:19:22;;;;;;;;;65.50;51.25;;;;;5.45;50.14;99401.53;5054457;28;45478;-68
2022/03/07 09:21:48;;;;;;;;;54.75;44.50;;;;;5.48;50.40;99398.00;5050152;28;46504;-68
2022/03/07 09:24:13;;;;;;;;;58.00;46.67;;;;;5.53;50.14;99398.81;5054110;28;45352;-68
2022/03/07 09:26:39;;;;;;;;;62.50;50.25;;;;;5.60;49.89;99396.06;5054136;28;45413;-68
2022/03/07 09:29:04;;;;;;;;;58.75;45.50;;;;;5.68;49.38;99393.34;5053072;28;45457;-68
2022/03/07 09:31:31;;;;;;;;;59.67;44.67;;;;;5.73;49.30;99388.88;5054252;28;46084;-68
2022/03/07 09:33:57;;;;;;;;;63.67;48.00;;;;;5.78;48.95;99386.19;5034947;28;45563;-68
2022/03/07 09:36:22;;;;;;;;;53.00;44.00;;;;;5.82;48.72;99385.25;5044840;28;45685;-68
2022/03/07 09:38:50;;;;;;;;;59.33;45.67;;;;;5.89;48.64;99385.16;5052993;28;45550;-68
2022/03/07 09:41:16;;;;;;;;;61.33;47.33;;;;;5.99;48.64;99385.00;5045734;28;45488;-68
2022/03/07 09:43:42;;;;;;;;;58.67;47.00;;;;;6.06;48.21;99387.47;5053807;28;45452;-67
2022/03/07 09:46:07;;;;;;;;;55.33;42.00;;;;;6.16;47.70;99380.34;5052562;28;45572;-68
2022/03/07 09:48:33;;;;;;;;;56.67;42.67;;;;;6.23;47.67;99374.94;5051405;28;45393;-68
2022/03/07 09:50:58;;;;;;;;;52.00;39.33;;;;;6.30;47.37;99378.31;5053502;28;45678;-68
2022/03/07 09:53:24;;;;;;;;;75.50;57.25;;;;;6.39;47.55;99375.50;5052045;28;45360;-68
2022/03/07 09:55:50;;;;;;;;;60.00;48.67;;;;;6.46;47.30;99382.38;5045832;28;45480;-67
2022/03/07 09:58:16;;;;;;;;;60.33;44.00;;;;;6.53;47.27;99373.53;5049061;28;45478;-68
2022/03/07 10:00:42;;;;;;;;;59.00;50.00;;;;;6.61;47.15;99370.72;5049041;28;46187;-69
2022/03/07 10:03:10;;;;;;;;;66.33;47.67;;;;;6.68;47.08;99368.84;5049806;28;45450;-68
2022/03/07 10:05:38;;;;;;;;;57.33;46.67;;;;;6.73;47.00;99366.97;5049370;28;45511;-68
2022/03/07 10:08:08;;;;;;;;;59.75;46.75;;;;;6.79;47.28;99365.13;5066150;28;45578;-68
2022/03/07 10:10:42;;;;;;;;;57.00;42.33;;;;;6.83;46.90;99365.91;5032142;28;48105;-68
2022/03/07 10:13:13;;;;;;;;;45.67;38.00;;;;;6.88;46.89;99364.03;5051307;28;45509;-68
2022/03/07 10:15:40;;;;;;;;;66.00;49.33;;;;;6.93;46.81;99352.56;5052997;28;45453;-68
2022/03/07 10:18:05;;;;;;;;;62.33;47.67;;;;;7.01;46.83;99352.41;5053499;28;45631;-68
2022/03/07 10:20:32;;;;;;;;;63.00;49.33;;;;;7.08;46.87;99343.50;5051054;28;46109;-68
2022/03/07 10:23:00;;;;;;;;;60.75;48.75;;;;;7.14;46.07;99339.91;5052615;28;45511;-68
2022/03/07 10:25:28;;;;;;;;;50.67;37.67;;;;;7.14;45.87;99335.50;5049636;28;45487;-68
2022/03/07 10:27:55;;;;;;;;;58.33;48.00;;;;;7.21;45.86;99339.69;5030858;28;45427;-68
2022/03/07 10:30:24;;;;;;;;;53.33;41.67;;;;;7.28;45.85;99330.81;5034353;28;45455;-67
2022/03/07 10:32:57;;;;;;;;;64.67;48.67;;;;;7.39;45.49;99334.94;5035007;28;45493;-66
2022/03/07 10:35:27;;;;;;;;;54.33;44.67;;;;;7.48;45.46;99334.72;5051471;28;45595;-68
2022/03/07 10:38:17;;;;;;;;;54.00;43.67;;;;;7.56;45.12;99323.13;5045245;28;45446;-66
2022/03/07 10:40:47;;;;;;;;;46.00;37.00;;;;;7.63;44.90;99322.09;5021418;28;46628;-67
2022/03/07 10:43:14;;;;;;;;;60.67;47.33;;;;;7.69;44.25;99326.34;5047441;28;45498;-66
2022/03/07 10:45:50;;;;;;;;;56.00;44.67;;;;;7.76;43.96;99314.75;5050679;28;45469;-67
2022/03/07 10:48:16;;;;;;;;;59.33;46.67;;;;;7.83;43.69;99310.22;5049482;28;45404;-67
2022/03/07 10:50:53;;;;;;;;;61.33;45.33;;;;;7.94;43.40;99318.66;5033718;28;46782;-67
2022/03/07 10:53:19;;;;;;;;;53.00;43.67;;;;;7.99;43.03;99316.78;5052049;28;45417;-67
2022/03/07 10:55:51;;;;;;;;;57.00;44.00;;;;;8.05;43.01;99306.09;5054010;28;45466;-67
2022/03/07 10:58:16;;;;;;;;;61.00;47.33;;;;;8.09;42.92;99302.50;5037760;28;45421;-67
2022/03/07 11:00:56;;;;;;;;;56.67;44.00;;;;;8.16;43.30;99297.97;5051263;28;46979;-67
2022/03/07 11:03:24;;;;;;;;;55.67;44.67;;;;;8.23;42.90;99305.59;5043216;28;45391;-67
2022/03/07 11:05:51;;;;;;;;;64.33;50.33;;;;;8.32;43.00;99304.53;5055371;28;45453;-67
2022/03/07 11:08:18;;;;;;;;;55.00;42.67;;;;;8.41;42.10;99299.00;5055060;28;45469;-67
2022/03/07 11:10:52;;;;;;;;;62.67;49.00;;;;;8.47;42.34;99288.34;5052899;28;45982;-67
2022/03/07 11:13:19;;;;;;;;;58.67;45.67;;;;;8.55;41.73;99295.97;5048499;28;45479;-67
2022/03/07 11:15:47;;;;;;;;;55.67;45.00;;;;;8.62;41.94;99289.66;5047785;28;45508;-67
2022/03/07 11:18:14;;;;;;;;;55.00;42.67;;;;;8.71;41.89;99292.84;5055856;28;45405;-67
2022/03/07 11:20:45;;;;;;;;;61.33;47.00;;;;;8.78;41.93;99277.78;5052555;28;45511;-67